sensor_id;sensor_type;location;lat;lon;timestamp;temperature;humidity
45735;DHT22;31446;49.632;8.328;2024-02-28T00:08:15;5.60;99.90
45735;DHT22;31446;49.632;8.328;2024-02-28T00:23:22;5.50;99.90
45735;DHT22;31446;49.632;8.328;2024-02-28T00:38:29;5.30;99.90
45735;DHT22;31446;49.632;8.328;2024-02-28T00:53:35;5.30;99.90
45735;DHT22;31446;49.632;8.328;2024-02-28T01:08:43;4.90;99.90
45735;DHT22;31446;49.632;8.328;2024-02-28T01:23:49;4.70;99.90
45735;DHT22;31446;49.632;8.328;2024-02-28T01:38:56;4.90;99.90
45735;DHT22;31446;49.632;8.328;2024-02-28T01:54:02;4.90;99.90
45735;DHT22;31446;49.632;8.328;2024-02-28T02:09:09;4.70;99.90
45735;DHT22;31446;49.632;8.328;2024-02-28T02:24:15;4.70;99.90
45735;DHT22;31446;49.632;8.328;2024-02-28T02:39:21;4.60;99.90
45735;DHT22;31446;49.632;8.328;2024-02-28T02:54:28;4.50;99.90
45735;DHT22;31446;49.632;8.328;2024-02-28T03:09:34;4.40;99.90
45735;DHT22;31446;49.632;8.328;2024-02-28T03:24:41;4.00;99.90
45735;DHT22;31446;49.632;8.328;2024-02-28T03:39:47;3.70;99.90
45735;DHT22;31446;49.632;8.328;2024-02-28T03:54:53;3.30;99.90
45735;DHT22;31446;49.632;8.328;2024-02-28T04:10:00;3.00;99.90
45735;DHT22;31446;49.632;8.328;2024-02-28T04:25:09;2.70;99.90
45735;DHT22;31446;49.632;8.328;2024-02-28T04:40:16;2.70;99.90
45735;DHT22;31446;49.632;8.328;2024-02-28T04:55:22;2.50;99.90
45735;DHT22;31446;49.632;8.328;2024-02-28T05:10:28;2.50;99.90
45735;DHT22;31446;49.632;8.328;2024-02-28T05:25:35;2.40;99.90
45735;DHT22;31446;49.632;8.328;2024-02-28T05:40:41;2.30;99.90
45735;DHT22;31446;49.632;8.328;2024-02-28T05:55:49;2.10;99.90
45735;DHT22;31446;49.632;8.328;2024-02-28T06:10:57;2.20;99.90
45735;DHT22;31446;49.632;8.328;2024-02-28T06:26:07;2.10;99.90
45735;DHT22;31446;49.632;8.328;2024-02-28T06:41:19;2.50;99.90
45735;DHT22;31446;49.632;8.328;2024-02-28T06:56:26;2.60;99.90
45735;DHT22;31446;49.632;8.328;2024-02-28T07:11:33;3.00;99.90
45735;DHT22;31446;49.632;8.328;2024-02-28T07:26:39;3.60;99.90
45735;DHT22;31446;49.632;8.328;2024-02-28T07:41:45;4.40;99.90
45735;DHT22;31446;49.632;8.328;2024-02-28T07:56:52;5.20;99.90
45735;DHT22;31446;49.632;8.328;2024-02-28T08:11:58;5.80;99.90
45735;DHT22;31446;49.632;8.328;2024-02-28T08:27:05;6.30;99.90
45735;DHT22;31446;49.632;8.328;2024-02-28T08:42:11;6.10;99.90
45735;DHT22;31446;49.632;8.328;2024-02-28T08:57:18;6.90;99.90
45735;DHT22;31446;49.632;8.328;2024-02-28T09:12:27;7.70;99.90
45735;DHT22;31446;49.632;8.328;2024-02-28T09:27:34;8.00;99.90
45735;DHT22;31446;49.632;8.328;2024-02-28T09:42:40;8.60;99.90
45735;DHT22;31446;49.632;8.328;2024-02-28T09:57:48;8.70;99.90
45735;DHT22;31446;49.632;8.328;2024-02-28T10:12:54;9.10;99.90
45735;DHT22;31446;49.632;8.328;2024-02-28T10:28:02;9.80;99.90
45735;DHT22;31446;49.632;8.328;2024-02-28T10:43:09;10.10;99.90
45735;DHT22;31446;49.632;8.328;2024-02-28T10:58:17;10.80;99.90
45735;DHT22;31446;49.632;8.328;2024-02-28T11:13:26;11.60;99.90
45735;DHT22;31446;49.632;8.328;2024-02-28T11:28:32;11.80;99.90
45735;DHT22;31446;49.632;8.328;2024-02-28T11:43:39;11.40;99.90
45735;DHT22;31446;49.632;8.328;2024-02-28T12:10:29;11.80;99.90
45735;DHT22;31446;49.632;8.328;2024-02-28T12:25:35;12.80;99.90
45735;DHT22;31446;49.632;8.328;2024-02-28T12:40:42;12.70;99.90
45735;DHT22;31446;49.632;8.328;2024-02-28T12:55:49;15.70;99.90
45735;DHT22;31446;49.632;8.328;2024-02-28T13:10:55;17.20;99.90
45735;DHT22;31446;49.632;8.328;2024-02-28T13:26:01;14.60;99.90
45735;DHT22;31446;49.632;8.328;2024-02-28T13:41:08;14.40;99.90
45735;DHT22;31446;49.632;8.328;2024-02-28T13:56:14;16.90;99.90
45735;DHT22;31446;49.632;8.328;2024-02-28T14:11:21;15.10;99.90
45735;DHT22;31446;49.632;8.328;2024-02-28T14:26:28;14.60;99.90
45735;DHT22;31446;49.632;8.328;2024-02-28T14:41:34;14.40;99.90
45735;DHT22;31446;49.632;8.328;2024-02-28T14:56:41;13.00;99.90
45735;DHT22;31446;49.632;8.328;2024-02-28T15:11:47;13.40;99.90
45735;DHT22;31446;49.632;8.328;2024-02-28T15:26:54;13.10;99.90
45735;DHT22;31446;49.632;8.328;2024-02-28T15:42:00;13.00;99.90
45735;DHT22;31446;49.632;8.328;2024-02-28T15:57:06;12.30;99.90
45735;DHT22;31446;49.632;8.328;2024-02-28T16:12:13;11.90;99.90
45735;DHT22;31446;49.632;8.328;2024-02-28T16:27:20;11.70;99.90
45735;DHT22;31446;49.632;8.328;2024-02-28T16:42:26;11.30;99.90
45735;DHT22;31446;49.632;8.328;2024-02-28T17:12:48;10.10;99.90
45735;DHT22;31446;49.632;8.328;2024-02-28T17:27:55;9.50;99.90
45735;DHT22;31446;49.632;8.328;2024-02-28T17:43:01;9.00;99.90
45735;DHT22;31446;49.632;8.328;2024-02-28T17:58:07;8.60;99.90
45735;DHT22;31446;49.632;8.328;2024-02-28T18:13:14;8.00;99.90
45735;DHT22;31446;49.632;8.328;2024-02-28T18:28:24;7.60;99.90
45735;DHT22;31446;49.632;8.328;2024-02-28T18:43:31;7.30;99.90
45735;DHT22;31446;49.632;8.328;2024-02-28T18:58:37;7.10;99.90
45735;DHT22;31446;49.632;8.328;2024-02-28T19:13:43;6.80;99.90
45735;DHT22;31446;49.632;8.328;2024-02-28T19:28:50;6.40;99.90
45735;DHT22;31446;49.632;8.328;2024-02-28T19:43:56;6.20;99.90
45735;DHT22;31446;49.632;8.328;2024-02-28T19:59:03;5.90;99.90
45735;DHT22;31446;49.632;8.328;2024-02-28T20:14:09;5.90;99.90
45735;DHT22;31446;49.632;8.328;2024-02-28T20:29:15;5.70;99.90
45735;DHT22;31446;49.632;8.328;2024-02-28T20:44:22;5.40;99.90
45735;DHT22;31446;49.632;8.328;2024-02-28T20:59:30;5.10;99.90
45735;DHT22;31446;49.632;8.328;2024-02-28T21:14:37;4.70;99.90
45735;DHT22;31446;49.632;8.328;2024-02-28T21:29:44;4.40;99.90
45735;DHT22;31446;49.632;8.328;2024-02-28T21:44:50;4.20;99.90
45735;DHT22;31446;49.632;8.328;2024-02-28T21:59:57;3.90;99.90
45735;DHT22;31446;49.632;8.328;2024-02-28T22:15:04;3.70;99.90
45735;DHT22;31446;49.632;8.328;2024-02-28T22:30:11;3.70;99.90
45735;DHT22;31446;49.632;8.328;2024-02-28T22:45:18;3.70;99.90
45735;DHT22;31446;49.632;8.328;2024-02-28T23:00:25;3.40;99.90
45735;DHT22;31446;49.632;8.328;2024-02-28T23:15:40;3.40;99.90
45735;DHT22;31446;49.632;8.328;2024-02-28T23:30:46;3.30;99.90
45735;DHT22;31446;49.632;8.328;2024-02-28T23:45:53;3.40;99.90
